NCAR-RAP Real-Time Weather Data

Output produced by METARs form (20 August 2017  04:05 UTC)
found at http://weather.rap.ucar.edu/surface/
 
Conditions at: K4O4 observed 20 August 2017  03:55 UTC
Temperature: 27.0°C (81°F)
Dewpoint: 22.0°C (72°F) [RH = 74%]
Pressure (altimeter): 29.98 inches Hg (1015.3 mb)
Winds: from the S (170 degrees) at 5 MPH (4 knots; 2.1 m/s)
Visibility: missing
Ceiling: at least 12,000 feet AGL
Clouds: sky clear below 12,000 feet AGL
Present Weather: automated observation with no human augmentation;
there may or may not be significant weather present at this time
K4O4 200355Z AUTO 17004KT CLR 27/22 A2998 RMK AO2